Time;durP1;ratioP1;P1;durP2;ratioP2;P2;SDS_P1;SDS_P2;PMS_P1;PMS_P2;Temp;Humidity;BMP_temperature;BMP_pressure;BME280_temperature;BME280_humidity;BME280_pressure;Samples;Min_cycle;Max_cycle;Signal;HPM_P1;HPM_P2
2022/09/16 00:02:16;;;;;;;8.90;5.40;;;;;;;13.20;89.31;95083.72;5022952;28;20211;-81
2022/09/16 00:04:41;;;;;;;11.13;6.60;;;;;;;13.23;89.01;95082.56;5011186;28;20186;-81
2022/09/16 00:07:07;;;;;;;7.03;5.40;;;;;;;13.29;88.47;95081.88;5023035;28;20210;-81
2022/09/16 00:09:32;;;;;;;10.57;5.70;;;;;;;13.36;88.50;95084.59;5021986;28;20201;-81
2022/09/16 00:11:57;;;;;;;7.45;5.95;;;;;;;13.19;89.35;95082.13;5004657;28;20187;-81
2022/09/16 00:14:22;;;;;;;6.57;5.67;;;;;;;13.41;88.59;95090.09;5020814;28;20190;-81
2022/09/16 00:16:48;;;;;;;8.30;5.72;;;;;;;13.42;88.15;95095.13;5032194;28;20519;-81
2022/09/16 00:19:13;;;;;;;7.17;5.17;;;;;;;13.47;88.31;95082.38;5020823;28;20207;-81
2022/09/16 00:21:38;;;;;;;7.50;6.07;;;;;;;13.48;89.03;95083.19;5013759;28;20183;-82
2022/09/16 00:24:04;;;;;;;5.80;5.20;;;;;;;13.54;88.91;95087.69;5018787;28;20191;-81
2022/09/16 00:26:29;;;;;;;7.40;5.20;;;;;;;13.55;89.22;95082.31;4999891;28;20677;-81
2022/09/16 00:28:55;;;;;;;6.30;5.10;;;;;;;13.55;88.25;95081.50;5019487;28;20183;-81
2022/09/16 00:31:20;;;;;;;7.50;5.70;;;;;;;13.53;88.41;95086.09;5022621;28;20191;-81
2022/09/16 00:33:46;;;;;;;6.37;5.00;;;;;;;13.54;88.68;95080.69;5021638;28;20187;-81
2022/09/16 00:36:16;;;;;;;5.97;5.23;;;;;;;13.52;88.10;95082.66;5018632;28;20314;-82
2022/09/16 00:38:42;;;;;;;7.63;5.88;;;;;;;13.58;88.43;95091.56;5010006;28;20203;-82
2022/09/16 00:41:13;;;;;;;6.80;5.67;;;;;;;13.51;89.00;95094.06;4999695;28;20661;-82
2022/09/16 00:44:26;;;;;;;9.27;5.93;;;;;;;13.53;89.05;95083.47;5020775;28;20217;-81
2022/09/16 00:46:51;;;;;;;11.90;6.18;;;;;;;13.53;89.37;95088.69;5035906;28;20219;-81
2022/09/16 00:49:24;;;;;;;7.77;5.33;;;;;;;13.43;89.38;95088.09;5024174;28;20249;-81
2022/09/16 00:51:51;;;;;;;8.20;5.90;;;;;;;13.49;88.96;95085.59;5019710;28;20277;-81
2022/09/16 00:54:17;;;;;;;6.40;5.80;;;;;;;13.53;89.23;95088.69;5028380;28;20240;-81
2022/09/16 00:56:45;;;;;;;8.05;6.13;;;;;;;13.54;89.48;95078.06;5025109;28;20198;-82
2022/09/16 00:59:17;;;;;;;10.63;6.80;;;;;;;13.55;89.65;95087.50;5004005;28;20301;-82
2022/09/16 01:01:43;;;;;;;8.00;6.40;;;;;;;13.52;89.55;95082.66;5050645;28;20163;-82
2022/09/16 01:04:15;;;;;;;6.60;5.87;;;;;;;13.56;89.78;95078.69;5029241;28;20175;-81
2022/09/16 01:06:40;;;;;;;13.48;6.68;;;;;;;13.59;89.56;95086.16;5050012;28;20237;-82
2022/09/16 01:09:06;;;;;;;7.67;6.57;;;;;;;13.59;89.51;95080.13;5021580;28;20203;-82
2022/09/16 01:11:31;;;;;;;8.10;6.50;;;;;;;13.54;89.99;95080.69;5000782;28;20187;-81
2022/09/16 01:14:51;;;;;;;7.70;6.70;;;;;;;13.58;89.89;95078.53;5004157;28;20565;-81
2022/09/16 01:16:45;;;;;;;8.87;7.37;;;;;;;13.61;89.90;95080.78;5024799;28;20625;-82
2022/09/16 01:19:28;;;;;;;9.47;7.43;;;;;;;13.56;90.06;95078.69;5003690;28;20223;-81
2022/09/16 01:22:08;;;;;;;10.13;7.87;;;;;;;13.63;89.58;95080.59;5017916;28;20190;-81
2022/09/16 01:24:47;;;;;;;9.80;7.73;;;;;;;13.64;90.45;95083.03;5024398;28;20187;-82
2022/09/16 01:27:23;;;;;;;9.13;7.17;;;;;;;13.63;90.29;95083.22;5033726;28;20193;-81
2022/09/16 01:29:54;;;;;;;7.18;6.47;;;;;;;13.53;90.25;95073.03;5027741;28;20193;-82
2022/09/16 01:32:27;;;;;;;10.00;7.00;;;;;;;13.57;90.78;95074.28;5023893;28;20232;-81
2022/09/16 01:35:07;;;;;;;9.40;6.53;;;;;;;13.61;90.72;95096.44;5022900;28;20675;-81
2022/09/16 01:37:35;;;;;;;9.03;7.40;;;;;;;13.52;90.11;95081.84;5023361;28;20285;-81
2022/09/16 01:40:10;;;;;;;11.50;6.33;;;;;;;13.49;89.31;95075.16;5018558;28;20233;-81
2022/09/16 01:42:47;;;;;;;7.37;6.00;;;;;;;13.43;88.15;95085.50;5027422;28;20186;-81
2022/09/16 01:45:22;;;;;;;10.23;6.13;;;;;;;13.41;87.59;95092.69;5010704;28;20288;-81
2022/09/16 01:48:08;;;;;;;8.07;5.90;;;;;;;13.51;87.35;95082.81;5020784;28;20197;-81
2022/09/16 01:50:40;;;;;;;7.77;5.80;;;;;;;13.43;87.31;95090.72;5024131;28;20725;-81
2022/09/16 01:53:14;;;;;;;8.93;6.07;;;;;;;13.33;88.00;95083.94;5014352;28;20234;-82
2022/09/16 01:55:48;;;;;;;9.73;6.20;;;;;;;13.42;87.74;95086.47;5026041;28;20254;-81
2022/09/16 01:58:25;;;;;;;6.97;6.27;;;;;;;13.42;88.30;95076.06;5023944;28;20206;-81
2022/09/16 02:00:52;;;;;;;12.80;6.30;;;;;;;13.36;87.67;95066.34;5020757;28;20195;-81
2022/09/16 02:03:21;;;;;;;9.07;4.90;;;;;;;13.38;87.63;95065.16;5020340;28;20187;-81
2022/09/16 02:06:15;;;;;;;6.73;5.30;;;;;;;13.31;87.02;95066.84;5009289;28;20306;-81
2022/09/16 02:08:48;;;;;;;9.30;5.93;;;;;;;13.31;86.87;95080.69;5018387;28;20206;-81
2022/09/16 02:11:15;;;;;;;10.03;5.63;;;;;;;13.25;86.60;95078.81;5017163;28;20198;-81
2022/09/16 02:13:44;;;;;;;6.00;5.40;;;;;;;13.26;85.71;95080.44;5020835;28;20221;-81
2022/09/16 02:16:14;;;;;;;11.40;5.97;;;;;;;13.25;85.39;95076.22;5006365;28;20598;-80
2022/09/16 02:18:41;;;;;;;8.43;5.90;;;;;;;13.31;85.48;95065.06;5023767;28;20215;-81
2022/09/16 02:21:08;;;;;;;7.88;6.10;;;;;;;13.32;85.88;95061.47;5013328;28;20190;-82
2022/09/16 02:23:39;;;;;;;6.10;5.60;;;;;;;13.29;85.72;95061.81;5000583;28;20225;-82
2022/09/16 02:26:07;;;;;;;11.20;6.97;;;;;;;13.32;85.82;95066.69;5029858;28;20642;-81
2022/09/16 02:28:34;;;;;;;7.93;6.93;;;;;;;13.31;86.06;95065.06;5022312;28;20558;-81
2022/09/16 02:31:05;;;;;;;10.00;6.73;;;;;;;13.35;86.15;95069.94;5019895;28;20869;-81
2022/09/16 02:33:36;;;;;;;8.80;6.57;;;;;;;13.32;86.99;95066.69;5002038;28;20191;-81
2022/09/16 02:36:03;;;;;;;7.93;6.63;;;;;;;13.24;88.19;95069.34;5006748;28;20790;-81
2022/09/16 02:38:33;;;;;;;10.10;7.57;;;;;;;13.27;88.40;95069.00;4998107;28;20253;-81
2022/09/16 02:41:00;;;;;;;13.38;7.32;;;;;;;13.28;88.66;95075.84;5000493;28;20192;-81
2022/09/16 02:43:25;;;;;;;8.97;7.30;;;;;;;13.22;88.23;95068.72;5018901;28;20414;-81
2022/09/16 02:46:18;;;;;;;7.40;6.67;;;;;;;13.29;88.84;95072.25;5006812;28;20691;-81
2022/09/16 02:49:10;;;;;;;9.47;7.43;;;;;;;13.28;89.11;95068.03;5028307;28;20206;-81
2022/09/16 02:51:58;;;;;;;10.53;8.57;;;;;;;13.30;89.60;95068.66;5027017;28;20199;-82
2022/09/16 02:54:29;;;;;;;11.20;8.20;;;;;;;13.29;89.91;95061.00;5017282;28;20309;-82
2022/09/16 02:56:55;;;;;;;11.45;8.68;;;;;;;13.31;90.28;95067.66;5020439;28;20737;-82
2022/09/16 02:59:21;;;;;;;11.75;8.57;;;;;;;13.31;90.48;95062.44;5022225;28;20293;-82
2022/09/16 03:01:46;;;;;;;10.48;8.98;;;;;;;13.30;91.29;95065.25;5021947;28;20265;-81
2022/09/16 03:04:14;;;;;;;11.90;9.63;;;;;;;13.31;91.95;95064.25;5003245;28;20187;-82
2022/09/16 03:06:40;;;;;;;11.45;9.52;;;;;;;13.31;91.94;95065.06;5000932;28;20595;-81
2022/09/16 03:09:08;;;;;;;12.50;10.00;;;;;;;13.32;91.93;95064.06;5017137;28;20183;-81
2022/09/16 03:11:57;;;;;;;11.07;9.50;;;;;;;13.38;92.25;95061.75;5018929;28;20550;-81
2022/09/16 03:14:51;;;;;;;12.70;9.20;;;;;;;13.32;92.45;95055.44;5030092;28;20187;-81
2022/09/16 03:17:25;;;;;;;11.80;8.77;;;;;;;13.28;91.73;95060.22;5025253;28;20192;-81
2022/09/16 03:20:55;;;;;;;14.03;8.47;;;;;;;13.29;91.80;95056.59;5016990;28;20619;-81
2022/09/16 03:23:36;;;;;;;18.07;9.43;;;;;;;13.31;91.90;95049.41;4970165;28;20239;-81
2022/09/16 03:26:10;;;;;;;13.27;9.63;;;;;;;13.28;92.13;95056.78;4947217;28;20322;-81
2022/09/16 03:28:50;;;;;;;11.83;8.43;;;;;;;13.16;92.85;95048.53;4976238;28;20230;-81
2022/09/16 03:31:24;;;;;;;9.33;8.40;;;;;;;13.13;92.78;95054.09;4967325;28;20730;-81
2022/09/16 03:33:54;;;;;;;8.67;7.63;;;;;;;13.15;92.71;95049.50;4966075;28;20276;-81
2022/09/16 03:36:22;;;;;;;13.50;8.80;;;;;;;13.13;93.51;95048.88;4970657;28;20295;-81
2022/09/16 03:38:48;;;;;;;9.10;7.57;;;;;;;13.21;92.47;95048.84;4969103;28;20216;-81
2022/09/16 03:41:14;;;;;;;8.67;7.13;;;;;;;13.19;92.20;95044.78;4970245;28;20203;-81
2022/09/16 03:43:39;;;;;;;9.90;7.63;;;;;;;13.16;91.80;95048.53;4968104;28;20196;-81
2022/09/16 03:46:09;;;;;;;8.07;6.57;;;;;;;13.08;90.71;95048.63;4968084;28;20269;-81
2022/09/16 03:48:35;;;;;;;10.30;6.50;;;;;;;13.03;89.50;95045.72;4951046;28;20194;-80
2022/09/16 03:51:00;;;;;;;10.13;6.03;;;;;;;13.01;88.26;95039.88;4968713;28;20221;-81
2022/09/16 03:53:25;;;;;;;10.40;6.30;;;;;;;12.96;88.91;95037.78;4960752;28;20890;-81
2022/09/16 03:55:50;;;;;;;7.47;6.13;;;;;;;13.04;87.93;95034.28;4952867;28;20262;-80
2022/09/16 03:58:16;;;;;;;9.87;5.40;;;;;;;13.03;86.89;95037.88;4972490;28;20317;-81
2022/09/16 04:00:41;;;;;;;12.63;5.57;;;;;;;13.04;87.09;95032.50;5014974;28;20498;-81
2022/09/16 04:03:06;;;;;;;6.30;5.70;;;;;;;13.02;86.58;95034.47;5021637;28;20272;-81
2022/09/16 04:05:32;;;;;;;9.13;5.67;;;;;;;12.96;85.85;95034.34;5029971;28;20215;-81
2022/09/16 04:07:57;;;;;;;8.27;5.50;;;;;;;12.92;85.37;95039.13;5016227;28;20194;-81
2022/09/16 04:10:22;;;;;;;7.00;4.97;;;;;;;12.99;85.59;95034.03;5017406;28;20607;-81
2022/09/16 04:12:47;;;;;;;9.70;5.70;;;;;;;12.96;84.79;95029.94;5024723;28;20187;-81
2022/09/16 04:15:13;;;;;;;12.00;5.60;;;;;;;13.01;84.96;95032.03;5019920;28;20211;-81
2022/09/16 04:17:38;;;;;;;10.27;4.93;;;;;;;12.99;85.38;95026.22;5037495;28;20230;-81
2022/09/16 04:20:06;;;;;;;6.47;4.80;;;;;;;12.99;85.70;95026.22;5019726;28;20183;-82
2022/09/16 04:22:31;;;;;;;7.27;5.27;;;;;;;12.93;85.97;95021.69;5053019;28;20178;-82
2022/09/16 04:24:57;;;;;;;9.40;5.40;;;;;;;12.92;85.82;95022.66;5044238;28;20194;-82
2022/09/16 04:27:22;;;;;;;7.77;5.90;;;;;;;12.95;86.63;95019.72;5044221;28;20183;-82
2022/09/16 04:29:48;;;;;;;6.57;5.57;;;;;;;12.95;86.01;95017.09;5030782;28;20198;-82
2022/09/16 04:32:13;;;;;;;6.40;5.23;;;;;;;13.00;86.32;95017.41;5029668;28;20190;-81
2022/09/16 04:34:39;;;;;;;7.73;5.50;;;;;;;12.91;86.24;95021.06;5005679;28;20677;-82
2022/09/16 04:37:04;;;;;;;8.63;5.53;;;;;;;12.91;85.55;95015.84;5025974;28;20707;-80
2022/09/16 04:39:30;;;;;;;5.87;4.70;;;;;;;12.83;85.61;95018.50;5026899;28;20191;-82
2022/09/16 04:41:55;;;;;;;7.27;4.40;;;;;;;12.80;85.90;95029.25;5025550;28;20539;-81
2022/09/16 04:44:20;;;;;;;7.10;4.97;;;;;;;12.74;85.86;95030.78;5007308;28;20226;-82
2022/09/16 04:46:46;;;;;;;8.73;4.73;;;;;;;12.68;86.29;95026.25;5030181;28;20313;-81
2022/09/16 04:49:11;;;;;;;7.33;4.80;;;;;;;12.69;86.67;95031.28;5013644;28;20186;-81
2022/09/16 04:51:37;;;;;;;11.60;5.30;;;;;;;12.66;86.92;95034.25;5021861;28;20191;-82
2022/09/16 04:54:02;;;;;;;9.60;5.33;;;;;;;12.48;87.34;95034.50;5017639;28;20718;-81
2022/09/16 04:56:30;;;;;;;7.90;5.10;;;;;;;12.64;86.83;95033.63;5022327;28;20270;-81
2022/09/16 04:58:58;;;;;;;9.77;5.87;;;;;;;12.61;87.53;95033.13;5037359;28;20211;-82
2022/09/16 05:01:26;;;;;;;11.13;5.53;;;;;;;12.63;87.33;95032.00;5027956;28;20200;-81
2022/09/16 05:03:53;;;;;;;9.33;5.47;;;;;;;12.65;87.92;95024.81;5034407;28;20191;-81
2022/09/16 05:06:24;;;;;;;7.93;5.10;;;;;;;12.48;88.68;95025.88;5012740;28;20203;-82
2022/09/16 05:08:50;;;;;;;7.30;5.40;;;;;;;12.54;88.15;95025.19;5021342;28;20186;-82
2022/09/16 05:11:18;;;;;;;9.00;5.40;;;;;;;12.36;88.73;95024.63;5014519;28;20182;-83
2022/09/16 05:13:44;;;;;;;9.13;5.10;;;;;;;12.20;87.87;95030.75;5007087;28;20202;-82
2022/09/16 05:16:12;;;;;;;6.23;4.90;;;;;;;12.19;88.46;95026.50;5004511;28;20210;-83
2022/09/16 05:18:38;;;;;;;11.20;5.67;;;;;;;12.36;88.85;95029.84;5028154;28;20198;-83
2022/09/16 05:21:06;;;;;;;7.43;5.27;;;;;;;12.40;88.17;95028.53;5020182;28;20190;-82
2022/09/16 05:23:32;;;;;;;5.90;5.17;;;;;;;12.47;87.84;95032.09;5010218;28;20655;-82
2022/09/16 05:26:03;;;;;;;8.57;4.77;;;;;;;12.46;87.77;95031.28;5008432;28;20217;-82
2022/09/16 05:28:28;;;;;;;13.30;5.30;;;;;;;12.50;88.01;95031.72;5030682;28;20237;-82
2022/09/16 05:30:53;;;;;;;5.80;5.00;;;;;;;12.34;88.23;95034.41;5022933;28;20199;-85
2022/09/16 05:33:19;;;;;;;6.27;5.63;;;;;;;12.36;88.34;95032.44;5016827;28;20653;-85
2022/09/16 05:35:44;;;;;;;5.93;4.80;;;;;;;12.27;89.19;95025.66;5022380;28;20206;-87
2022/09/16 05:38:10;;;;;;;9.47;5.70;;;;;;;12.30;89.63;95030.56;5024381;28;20206;-82
2022/09/16 05:40:36;;;;;;;9.13;5.53;;;;;;;12.42;88.33;95029.19;5027950;28;20190;-79
2022/09/16 05:43:01;;;;;;;8.63;5.43;;;;;;;12.44;88.28;95032.41;5007683;28;20664;-78
2022/09/16 05:45:26;;;;;;;12.40;5.30;;;;;;;12.22;88.02;95025.38;5020505;28;20706;-80
2022/09/16 05:47:52;;;;;;;10.17;5.23;;;;;;;12.33;88.51;95027.59;5017468;28;20217;-79
2022/09/16 05:50:17;;;;;;;9.30;5.50;;;;;;;12.29;89.27;95032.34;5021913;28;20665;-78
2022/09/16 05:52:43;;;;;;;9.07;5.70;;;;;;;12.26;88.82;95034.47;5019422;28;20271;-80
2022/09/16 05:55:08;;;;;;;9.80;5.77;;;;;;;12.17;89.52;95034.50;5028326;28;20217;-81
2022/09/16 05:57:34;;;;;;;8.00;5.13;;;;;;;12.14;90.74;95029.63;5020011;28;20602;-81
2022/09/16 05:59:59;;;;;;;6.60;5.10;;;;;;;12.28;89.55;95033.34;5005904;28;20230;-80
2022/09/16 06:02:25;;;;;;;7.77;5.30;;;;;;;12.23;88.65;95030.41;5023730;28;20218;-81
2022/09/16 06:04:50;;;;;;;7.83;5.43;;;;;;;12.19;89.79;95039.53;5016959;28;20187;-81
2022/09/16 06:07:16;;;;;;;6.10;5.23;;;;;;;12.31;89.56;95040.78;5036372;28;20195;-80
2022/09/16 06:09:41;;;;;;;9.77;5.97;;;;;;;12.28;88.82;95041.13;5024436;28;20186;-81
2022/09/16 06:12:08;;;;;;;8.87;5.67;;;;;;;12.35;89.54;95044.66;5018379;28;20194;-82
2022/09/16 06:14:33;;;;;;;10.07;5.53;;;;;;;12.34;89.85;95042.22;5030242;28;20190;-81
2022/09/16 06:16:59;;;;;;;10.30;5.47;;;;;;;12.36;90.12;95048.88;5022898;28;20754;-81
2022/09/16 06:19:24;;;;;;;11.73;6.00;;;;;;;12.42;89.55;95042.19;5020392;28;20692;-81
2022/09/16 06:21:49;;;;;;;12.40;6.83;;;;;;;12.46;89.59;95044.28;5022484;28;20281;-80
2022/09/16 06:24:16;;;;;;;9.90;6.63;;;;;;;12.23;91.77;95042.63;5026872;28;20596;-81
2022/09/16 06:26:42;;;;;;;7.90;6.40;;;;;;;12.29;91.49;95045.38;5022254;28;20206;-81
2022/09/16 06:29:09;;;;;;;14.93;6.67;;;;;;;12.19;93.33;95042.13;5024135;28;20664;-81
2022/09/16 06:31:35;;;;;;;9.27;6.90;;;;;;;12.32;92.77;95049.41;5021981;28;20194;-80
2022/09/16 06:34:00;;;;;;;9.60;6.70;;;;;;;12.30;93.43;95048.78;5026808;28;20189;-80
2022/09/16 06:36:35;;;;;;;12.93;8.67;;;;;;;12.26;93.85;95047.47;5032588;28;20198;-80
2022/09/16 06:39:01;;;;;;;9.07;7.00;;;;;;;11.98;95.06;95050.53;5024667;28;20217;-79
2022/09/16 06:41:27;;;;;;;10.57;7.93;;;;;;;11.91;96.78;95049.56;5025729;28;20183;-82
2022/09/16 06:43:52;;;;;;;13.80;8.57;;;;;;;11.79;97.60;95041.28;5014884;28;20672;-82
2022/09/16 06:46:23;;;;;;;10.97;7.53;;;;;;;11.73;98.22;95049.75;5027781;28;20222;-83
2022/09/16 06:48:51;;;;;;;13.27;8.10;;;;;;;11.77;98.44;95048.44;5020293;28;20187;-82
2022/09/16 06:51:25;;;;;;;10.93;7.73;;;;;;;11.85;97.02;95052.84;5030311;28;20187;-82
2022/09/16 06:53:52;;;;;;;12.17;7.50;;;;;;;11.89;96.73;95054.13;5026489;28;20187;-81
2022/09/16 06:56:19;;;;;;;10.53;7.73;;;;;;;11.99;95.92;95054.75;5027051;28;20618;-81
2022/09/16 06:58:49;;;;;;;14.33;7.03;;;;;;;11.77;96.77;95053.66;5024203;28;20195;-79
2022/09/16 07:01:20;;;;;;;10.37;7.13;;;;;;;11.78;95.51;95055.28;5030690;28;20253;-79
2022/09/16 07:03:47;;;;;;;9.07;6.97;;;;;;;11.60;97.02;95052.06;5023673;28;20183;-80
2022/09/16 07:06:13;;;;;;;9.53;7.67;;;;;;;11.52;99.14;95049.47;5020860;28;20214;-79
2022/09/16 07:08:40;;;;;;;10.33;7.97;;;;;;;11.56;98.35;95067.16;5016436;28;20187;-80
2022/09/16 07:11:07;;;;;;;10.60;7.60;;;;;;;11.33;99.82;95061.03;5006722;28;20198;-80
2022/09/16 07:13:33;;;;;;;8.17;7.30;;;;;;;11.67;98.85;95058.22;5026029;28;20195;-79
2022/09/16 07:16:00;;;;;;;12.90;8.53;;;;;;;11.81;97.66;95064.56;5025072;28;20591;-81
2022/09/16 07:18:26;;;;;;;7.93;7.07;;;;;;;11.84;96.93;95059.03;5023593;28;20218;-81
2022/09/16 07:20:52;;;;;;;7.67;6.63;;;;;;;12.02;96.07;95051.81;5009997;28;20202;-81
2022/09/16 07:23:17;;;;;;;7.93;7.00;;;;;;;12.19;94.78;95055.97;5021892;28;20194;-80
2022/09/16 07:25:42;;;;;;;9.67;6.97;;;;;;;12.33;93.32;95051.84;5024517;28;20221;-80
2022/09/16 07:28:08;;;;;;;9.70;6.90;;;;;;;12.47;92.90;95050.31;5031184;28;20183;-79
2022/09/16 07:30:33;;;;;;;12.30;7.03;;;;;;;12.59;92.57;95059.34;5011233;28;20671;-79
2022/09/16 07:32:59;;;;;;;8.30;6.80;;;;;;;12.74;92.41;95064.66;5028907;28;20627;-81
2022/09/16 07:35:24;;;;;;;9.27;6.60;;;;;;;12.52;92.01;95062.81;5026496;28;20253;-81
2022/09/16 07:37:49;;;;;;;8.67;6.90;;;;;;;12.65;92.27;95063.88;5020591;28;20750;-80
2022/09/16 07:40:16;;;;;;;8.07;6.93;;;;;;;12.58;91.82;95072.56;5025293;28;20187;-80
2022/09/16 07:42:41;;;;;;;7.17;6.17;;;;;;;12.67;91.21;95074.13;5027903;28;20182;-81
2022/09/16 07:45:07;;;;;;;9.20;7.13;;;;;;;12.68;92.15;95076.56;5024378;28;20277;-81
2022/09/16 07:47:33;;;;;;;14.17;10.93;;;;;;;12.72;92.61;95071.81;5027998;28;20182;-80
2022/09/16 07:49:58;;;;;;;11.50;8.63;;;;;;;12.77;92.88;95077.31;5014209;28;20191;-80
2022/09/16 07:52:28;;;;;;;12.33;7.87;;;;;;;12.84;92.40;95078.25;5021633;28;20187;-81
2022/09/16 07:54:54;;;;;;;9.13;7.07;;;;;;;12.94;91.76;95083.25;5008014;28;20286;-81
2022/09/16 07:57:19;;;;;;;7.60;6.73;;;;;;;13.10;91.25;95074.50;5024604;28;20183;-80
2022/09/16 07:59:44;;;;;;;7.43;6.70;;;;;;;13.23;90.51;95072.94;5027652;28;20249;-80
2022/09/16 08:02:10;;;;;;;9.43;6.00;;;;;;;13.35;89.47;95081.19;5026730;28;20189;-81
2022/09/16 08:04:35;;;;;;;5.57;5.07;;;;;;;13.39;87.00;95079.03;5028184;28;20622;-82
2022/09/16 08:07:00;;;;;;;8.20;5.73;;;;;;;13.42;87.94;95084.69;5019452;28;20301;-81
2022/09/16 08:09:26;;;;;;;8.57;5.20;;;;;;;13.42;87.30;95081.28;5032118;28;20183;-80
2022/09/16 08:11:51;;;;;;;5.87;4.90;;;;;;;13.46;88.32;95087.78;5008753;28;20197;-82
2022/09/16 08:14:16;;;;;;;9.10;4.93;;;;;;;13.42;87.85;95092.50;5025881;28;20187;-81
2022/09/16 08:16:41;;;;;;;6.85;5.53;;;;;;;13.53;88.97;95083.47;5013215;28;20210;-81
2022/09/16 08:19:08;;;;;;;6.97;4.78;;;;;;;13.66;87.94;95088.88;5007954;28;20225;-81
2022/09/16 08:21:33;;;;;;;5.43;4.40;;;;;;;13.69;86.85;95093.72;5021909;28;20187;-82
2022/09/16 08:23:58;;;;;;;5.82;3.95;;;;;;;13.80;85.33;95095.94;5020902;28;20656;-81
2022/09/16 08:26:24;;;;;;;4.82;3.90;;;;;;;13.88;85.47;95093.25;5007220;28;20249;-81
2022/09/16 08:28:50;;;;;;;6.95;4.28;;;;;;;14.02;85.61;95093.41;5015035;28;20182;-81
2022/09/16 08:31:16;;;;;;;6.95;4.15;;;;;;;14.10;85.19;95101.16;5032264;28;20675;-81
2022/09/16 08:33:41;;;;;;;8.80;3.60;;;;;;;14.04;84.38;95097.47;5006536;28;20191;-81
2022/09/16 08:36:13;;;;;;;3.83;3.45;;;;;;;14.25;83.78;95099.38;5013505;28;20206;-81
2022/09/16 08:38:39;;;;;;;6.45;2.92;;;;;;;13.98;82.97;95097.38;5027639;28;20218;-81
2022/09/16 08:41:42;;;;;;;3.00;2.80;;;;;;;13.96;82.86;95104.56;5006776;28;20532;-82
2022/09/16 08:44:27;;;;;;;3.85;3.55;;;;;;;13.94;83.78;95109.16;5022399;28;20191;-79
2022/09/16 08:46:55;;;;;;;4.28;3.35;;;;;;;13.86;83.69;95108.25;5014189;28;20966;-79
2022/09/16 08:49:42;;;;;;;6.57;4.20;;;;;;;13.68;83.91;95106.97;5037798;28;20179;-81
2022/09/16 08:52:12;;;;;;;8.15;4.40;;;;;;;13.71;83.51;95102.22;5008248;28;20195;-81
2022/09/16 08:54:41;;;;;;;3.58;3.30;;;;;;;13.66;83.09;95108.94;5030401;28;20187;-81
2022/09/16 08:57:12;;;;;;;3.88;3.58;;;;;;;13.88;83.02;95101.06;5025624;28;20210;-80
2022/09/16 08:59:41;;;;;;;6.57;3.63;;;;;;;13.83;83.05;95107.81;5005489;28;20214;-80
2022/09/16 09:02:35;;;;;;;4.05;3.63;;;;;;;14.14;81.61;95105.06;5017866;28;20191;-80
2022/09/16 09:05:02;;;;;;;5.82;3.85;;;;;;;14.15;81.74;95110.09;5010997;28;20664;-80
2022/09/16 09:08:00;;;;;;;5.10;3.50;;;;;;;14.38;81.34;95107.34;5006489;28;20190;-79
2022/09/16 09:10:44;;;;;;;4.57;3.67;;;;;;;14.35;80.58;95107.72;5029982;28;20186;-80
2022/09/16 09:13:31;;;;;;;7.03;3.47;;;;;;;14.47;80.00;95107.28;5028180;28;20186;-79
2022/09/16 09:16:15;;;;;;;5.55;3.40;;;;;;;14.60;79.69;95097.03;5027045;28;20281;-80
2022/09/16 09:18:48;;;;;;;4.57;3.50;;;;;;;15.06;78.16;95107.97;5000332;28;20218;-79
2022/09/16 09:21:40;;;;;;;4.32;2.78;;;;;;;15.18;77.13;95108.28;5018101;28;20183;-79
2022/09/16 09:24:26;;;;;;;2.63;2.17;;;;;;;14.82;73.30;95106.50;5024490;28;20715;-80
2022/09/16 09:26:59;;;;;;;4.00;2.38;;;;;;;15.24;73.42;95102.31;5038965;28;20221;-79
2022/09/16 09:29:34;;;;;;;4.30;2.63;;;;;;;14.93;73.82;95116.50;5027104;28;20178;-80
2022/09/16 09:32:07;;;;;;;5.53;2.70;;;;;;;14.78;75.35;95113.13;5036655;28;20194;-80
2022/09/16 09:34:55;;;;;;;4.95;2.60;;;;;;;14.65;74.43;95110.34;5020361;28;20366;-80
2022/09/16 09:37:39;;;;;;;4.32;2.60;;;;;;;14.73;76.33;95105.00;5003457;28;20257;-80
2022/09/16 09:40:33;;;;;;;2.63;2.15;;;;;;;14.81;74.02;95110.13;5019801;28;20187;-80
2022/09/16 09:43:18;;;;;;;5.75;2.63;;;;;;;14.69;75.59;95112.41;5023205;28;20241;-81
2022/09/16 09:46:05;;;;;;;5.03;2.15;;;;;;;14.54;74.12;95108.19;5013245;28;20243;-80
2022/09/16 09:48:47;;;;;;;2.53;2.00;;;;;;;14.47;74.37;95105.50;5024522;28;20249;-81
2022/09/16 09:51:20;;;;;;;5.85;2.30;;;;;;;14.52;75.01;95110.19;5010700;28;20210;-81
2022/09/16 09:53:51;;;;;;;4.10;2.15;;;;;;;14.41;75.98;95114.03;5019212;28;20194;-81
2022/09/16 09:56:24;;;;;;;3.63;2.45;;;;;;;14.42;76.05;95113.84;5008090;28;20267;-81
2022/09/16 09:58:52;;;;;;;3.88;3.08;;;;;;;14.55;75.64;95117.66;5005607;28;20244;-81
2022/09/16 10:01:17;;;;;;;7.07;2.95;;;;;;;14.28;75.22;95116.47;5030013;28;20194;-80
2022/09/16 10:03:44;;;;;;;6.30;3.00;;;;;;;14.35;75.34;95118.19;5025504;28;20560;-80
2022/09/16 10:06:09;;;;;;;6.05;3.28;;;;;;;14.15;76.32;95117.13;5015094;28;20703;-81
2022/09/16 10:08:41;;;;;;;5.53;3.20;;;;;;;14.15;77.67;95117.94;5023338;28;20190;-81
2022/09/16 10:11:19;;;;;;;3.20;2.95;;;;;;;14.03;76.61;95121.13;5012955;28;20182;-81
2022/09/16 10:14:04;;;;;;;9.90;3.25;;;;;;;13.83;77.85;95124.28;5027021;28;20229;-80
2022/09/16 10:16:33;;;;;;;5.53;2.77;;;;;;;13.86;76.42;95131.75;5000451;28;20213;-80
2022/09/16 10:19:22;;;;;;;3.58;2.50;;;;;;;13.93;76.32;95131.84;5026652;28;20217;-80
2022/09/16 10:21:52;;;;;;;4.35;2.20;;;;;;;13.45;77.51;95123.47;5014519;28;20194;-81
2022/09/16 10:24:41;;;;;;;2.53;2.20;;;;;;;13.54;76.38;95126.84;5014472;28;20245;-80
2022/09/16 10:27:28;;;;;;;3.17;2.70;;;;;;;13.67;78.08;95124.41;5043515;28;20202;-82
2022/09/16 10:30:04;;;;;;;3.65;2.40;;;;;;;13.59;78.33;95119.28;5034719;28;20218;-81
2022/09/16 10:32:30;;;;;;;4.13;2.72;;;;;;;13.73;78.16;95123.72;5002284;28;20190;-80
2022/09/16 10:34:55;;;;;;;3.00;1.95;;;;;;;13.77;75.34;95116.34;5001266;28;20195;-81
2022/09/16 10:37:21;;;;;;;4.20;2.30;;;;;;;13.70;75.21;95121.47;5007486;28;20190;-79
2022/09/16 10:39:52;;;;;;;2.50;2.10;;;;;;;13.96;75.32;95123.69;5024195;28;20190;-79
2022/09/16 10:42:20;;;;;;;3.47;2.22;;;;;;;13.85;75.17;95121.47;5006473;28;20273;-79
2022/09/16 10:44:47;;;;;;;3.38;2.55;;;;;;;13.67;75.72;95127.03;5021180;28;20283;-81
2022/09/16 10:47:27;;;;;;;7.18;2.70;;;;;;;13.58;77.07;95126.28;5017396;28;20187;-80
2022/09/16 10:49:56;;;;;;;3.58;2.40;;;;;;;13.55;75.96;95120.63;5012875;28;20187;-80
2022/09/16 10:52:26;;;;;;;6.72;2.85;;;;;;;13.46;76.85;95124.28;5024493;28;20198;-80
2022/09/16 10:54:52;;;;;;;5.17;2.63;;;;;;;13.40;76.31;95133.59;5040201;28;20241;-80
2022/09/16 10:57:29;;;;;;;6.03;2.53;;;;;;;13.31;76.89;95132.03;5025984;28;20273;-80
2022/09/16 11:00:17;;;;;;;3.40;2.23;;;;;;;13.40;76.17;95131.00;5029545;28;20196;-80
2022/09/16 11:03:19;;;;;;;3.10;2.30;;;;;;;13.44;76.85;95137.50;5023062;28;20266;-80
2022/09/16 11:06:12;;;;;;;4.63;2.67;;;;;;;13.33;78.32;95133.50;5022157;28;20562;-81
2022/09/16 11:09:00;;;;;;;3.70;2.17;;;;;;;13.51;76.37;95133.19;5025372;28;20710;-81
2022/09/16 11:11:36;;;;;;;6.20;2.77;;;;;;;13.52;77.06;95131.41;5027338;28;20732;-80
2022/09/16 11:14:37;;;;;;;3.87;2.57;;;;;;;13.46;77.18;95143.34;5023896;28;20190;-81
2022/09/16 11:17:24;;;;;;;4.93;2.37;;;;;;;13.63;75.78;95135.41;5021140;28;20202;-81
2022/09/16 11:20:09;;;;;;;6.97;2.80;;;;;;;13.72;76.16;95135.16;5021600;28;20199;-80
2022/09/16 11:22:46;;;;;;;5.97;2.20;;;;;;;13.81;74.56;95130.66;5025498;28;20591;-79
2022/09/16 11:25:38;;;;;;;4.70;3.35;;;;;;;14.07;74.99;95146.72;5027110;28;20210;-81
2022/09/16 11:28:39;;;;;;;5.60;2.67;;;;;;;14.04;74.88;95141.03;5027246;28;20201;-80
2022/09/16 11:31:07;;;;;;;4.13;2.08;;;;;;;14.08;74.12;95135.28;5005032;28;20202;-80
2022/09/16 11:33:44;;;;;;;6.38;2.95;;;;;;;14.14;73.19;95141.59;5029226;28;20218;-86
2022/09/16 11:36:20;;;;;;;3.75;2.60;;;;;;;14.37;72.88;95139.69;5006376;28;20300;-81
2022/09/16 11:38:58;;;;;;;3.38;2.45;;;;;;;14.64;73.25;95140.88;5017541;28;20214;-80
2022/09/16 11:41:34;;;;;;;3.90;2.70;;;;;;;15.05;71.61;95131.72;5012121;28;20186;-79
2022/09/16 11:44:19;;;;;;;5.35;2.30;;;;;;;14.65;70.26;95120.78;5025813;28;20182;-80
2022/09/16 11:47:13;;;;;;;5.20;2.42;;;;;;;15.06;68.70;95133.31;5016072;28;20252;-80
2022/09/16 11:49:45;;;;;;;4.97;2.50;;;;;;;15.09;67.38;95123.28;5029358;28;20213;-80
2022/09/16 11:52:24;;;;;;;4.60;2.33;;;;;;;14.91;66.61;95126.31;5013516;28;20191;-81